Time;durP1;ratioP1;P1;durP2;ratioP2;P2;SDS_P1;SDS_P2;PMS_P1;PMS_P2;Temp;Humidity;BMP_temperature;BMP_pressure;BME280_temperature;BME280_humidity;BME280_pressure;Samples;Min_cycle;Max_cycle;Signal;HPM_P1;HPM_P2
2023/05/31 00:01:17;;;;;;;7.93;5.07;;;;;;;11.05;100.00;102680.91;10314782;28;20051;-80
2023/05/31 00:06:17;;;;;;;6.60;5.15;;;;;;;10.97;100.00;102681.66;10325953;28;20045;-79
2023/05/31 00:11:18;;;;;;;10.27;5.93;;;;;;;10.92;100.00;102687.56;10316307;28;20030;-71
2023/05/31 00:16:18;;;;;;;8.05;4.55;;;;;;;10.87;100.00;102684.47;10294431;28;20066;-71
2023/05/31 00:21:18;;;;;;;13.30;6.05;;;;;;;10.79;100.00;102681.69;10293566;28;20482;-70
2023/05/31 00:26:19;;;;;;;5.75;5.05;;;;;;;10.74;100.00;102678.59;10260767;28;20092;-72
2023/05/31 00:31:20;;;;;;;6.07;5.20;;;;;;;10.72;100.00;102675.19;10277674;28;20058;-71
2023/05/31 00:36:20;;;;;;;13.18;5.25;;;;;;;10.72;100.00;102675.19;10277409;28;20039;-71
2023/05/31 00:41:21;;;;;;;7.85;6.10;;;;;;;10.71;100.00;102678.91;10294408;28;20079;-71
2023/05/31 00:46:34;;;;;;;8.00;6.20;;;;;;;10.67;100.00;102672.94;10262450;28;20039;-72
2023/05/31 00:51:35;;;;;;;7.07;5.80;;;;;;;10.70;100.00;102666.38;10278400;28;20033;-71
2023/05/31 00:56:35;;;;;;;6.15;5.22;;;;;;;10.71;100.00;102670.78;10276309;28;20054;-72
2023/05/31 01:01:36;;;;;;;10.63;5.80;;;;;;;10.71;100.00;102678.91;10276982;28;20031;-71
2023/05/31 01:06:39;;;;;;;10.15;7.15;;;;;;;10.74;100.00;102675.88;10278681;28;20038;-71
2023/05/31 01:12:08;;;;;;;12.93;6.18;;;;;;;10.73;100.00;102676.91;10279153;28;20125;-72
2023/05/31 01:17:13;;;;;;;10.13;5.80;;;;;;;10.77;100.00;102669.31;10278719;28;20474;-71
2023/05/31 01:22:32;;;;;;;9.55;5.82;;;;;;;10.80;100.00;102674.41;10277171;28;20474;-72
2023/05/31 01:27:32;;;;;;;7.68;6.07;;;;;;;10.76;100.00;102654.91;10276254;28;20138;-71
2023/05/31 01:32:33;;;;;;;10.82;6.95;;;;;;;10.77;100.00;102667.44;10276421;28;20103;-72
2023/05/31 01:37:33;;;;;;;11.98;6.20;;;;;;;10.74;100.00;102666.91;10261068;28;20031;-71
2023/05/31 01:42:34;;;;;;;10.50;8.07;;;;;;;10.73;100.00;102676.91;10292786;28;20062;-73
2023/05/31 01:47:35;;;;;;;13.07;7.30;;;;;;;10.73;100.00;102668.75;10261691;28;20057;-72
2023/05/31 01:52:36;;;;;;;9.23;6.43;;;;;;;10.69;100.00;102686.34;10279144;28;20540;-71
2023/05/31 01:57:37;;;;;;;10.80;6.90;;;;;;;10.66;100.00;102673.13;10261917;28;20066;-71
2023/05/31 02:02:41;;;;;;;10.70;5.75;;;;;;;10.61;100.00;102665.44;10262861;28;20035;-71
2023/05/31 02:07:42;;;;;;;8.27;5.82;;;;;;;10.64;100.00;102666.97;10278615;28;20059;-71
2023/05/31 02:12:42;;;;;;;12.77;5.80;;;;;;;10.59;100.00;102672.00;10300211;28;20058;-71
2023/05/31 02:17:43;;;;;;;11.43;5.97;;;;;;;10.54;100.00;102667.06;10282549;28;20482;-71
2023/05/31 02:22:45;;;;;;;6.28;5.53;;;;;;;10.50;100.00;102653.97;10283200;28;20070;-72
2023/05/31 02:27:45;;;;;;;8.35;6.65;;;;;;;10.51;100.00;102670.06;10266499;28;20089;-72
2023/05/31 02:32:45;;;;;;;6.97;5.38;;;;;;;10.50;100.00;102675.63;10281708;28;20097;-71
2023/05/31 02:37:46;;;;;;;13.95;7.15;;;;;;;10.46;100.00;102670.56;10283001;28;20128;-72
2023/05/31 02:42:47;;;;;;;10.70;5.72;;;;;;;10.42;100.00;102671.84;10250421;28;20467;-72
2023/05/31 02:47:47;;;;;;;14.80;7.03;;;;;;;10.37;100.00;102666.06;10298787;28;20463;-73
2023/05/31 02:52:48;;;;;;;8.90;5.30;;;;;;;10.32;100.00;102662.94;10281184;28;20121;-71
2023/05/31 02:57:48;;;;;;;9.95;6.95;;;;;;;10.31;100.00;102658.53;10281433;28;20047;-71
2023/05/31 03:02:48;;;;;;;9.82;6.22;;;;;;;10.30;100.00;102651.38;10296693;28;20061;-72
2023/05/31 03:07:49;;;;;;;6.47;5.80;;;;;;;10.25;100.00;102662.66;10280556;28;20030;-72
2023/05/31 03:12:49;;;;;;;7.95;6.00;;;;;;;10.19;100.00;102662.41;10280829;28;20117;-72
2023/05/31 03:17:50;;;;;;;10.85;6.85;;;;;;;10.14;100.00;102653.88;10298318;28;20114;-72
2023/05/31 03:22:50;;;;;;;7.03;6.28;;;;;;;10.11;100.00;102656.91;10279954;28;20450;-71
2023/05/31 03:27:51;;;;;;;8.07;6.95;;;;;;;10.05;100.00;102650.25;10263718;28;20141;-72
2023/05/31 03:32:51;;;;;;;6.88;5.80;;;;;;;10.02;100.00;102650.56;10297176;28;20501;-73
2023/05/31 03:37:52;;;;;;;9.02;6.55;;;;;;;10.00;100.00;102642.56;10280976;28;20051;-72
2023/05/31 03:42:53;;;;;;;9.52;6.70;;;;;;;9.96;100.00;102646.59;10298330;28;20043;-73
2023/05/31 03:47:53;;;;;;;10.40;6.97;;;;;;;9.96;100.00;102652.00;10298681;28;20065;-72
2023/05/31 03:52:54;;;;;;;8.15;6.32;;;;;;;9.95;100.00;102654.84;10296297;28;20031;-72
2023/05/31 03:57:54;;;;;;;6.30;5.60;;;;;;;9.97;100.00;102653.69;10280120;28;20031;-72
2023/05/31 04:02:55;;;;;;;12.32;6.35;;;;;;;9.99;100.00;102662.53;10296257;28;20038;-72
2023/05/31 04:07:55;;;;;;;10.60;7.00;;;;;;;10.07;100.00;102655.50;10279957;28;20031;-71
2023/05/31 04:12:55;;;;;;;9.68;7.07;;;;;;;10.09;100.00;102661.63;10296250;28;20082;-72
2023/05/31 04:17:56;;;;;;;9.77;6.53;;;;;;;10.19;100.00;102667.84;10277739;28;20140;-71
2023/05/31 04:22:56;;;;;;;9.43;6.45;;;;;;;10.29;100.00;102659.69;10263066;28;20047;-71
2023/05/31 04:27:57;;;;;;;12.02;8.00;;;;;;;10.38;100.00;102662.31;10276468;28;20038;-72
2023/05/31 04:32:58;;;;;;;9.95;6.93;;;;;;;10.42;100.00;102669.13;10294799;28;20118;-72
2023/05/31 04:38:02;;;;;;;9.82;7.85;;;;;;;10.59;100.00;102670.16;10278958;28;20112;-72
2023/05/31 04:43:03;;;;;;;11.30;7.50;;;;;;;10.69;100.00;102660.09;10277117;28;20060;-72
2023/05/31 04:48:03;;;;;;;12.57;7.40;;;;;;;11.74;100.00;102668.28;10294280;28;20041;-72
2023/05/31 04:53:04;;;;;;;8.95;7.80;;;;;;;12.48;100.00;102664.84;10294051;28;20035;-73
2023/05/31 04:58:04;;;;;;;9.52;5.85;;;;;;;12.97;100.00;102664.88;10276478;28;20058;-75
2023/05/31 05:03:05;;;;;;;11.77;7.07;;;;;;;13.32;100.00;102653.84;10293592;28;20045;-72
2023/05/31 05:08:05;;;;;;;10.32;6.63;;;;;;;13.61;100.00;102666.88;10276304;28;20125;-71
2023/05/31 05:13:06;;;;;;;11.57;5.93;;;;;;;13.93;100.00;102666.75;10276597;28;20049;-72
2023/05/31 05:18:06;;;;;;;14.48;6.47;;;;;;;14.25;100.00;102666.78;10260128;28;20134;-74
2023/05/31 05:23:07;;;;;;;10.40;6.15;;;;;;;14.55;100.00;102665.09;10276180;28;20187;-72
2023/05/31 05:28:07;;;;;;;6.25;4.85;;;;;;;14.80;100.00;102665.75;10275125;28;20041;-72
2023/05/31 05:33:08;;;;;;;15.43;6.63;;;;;;;15.02;100.00;102674.97;10275708;28;20078;-73
2023/05/31 05:38:08;;;;;;;14.82;6.22;;;;;;;15.26;100.00;102674.75;10293025;28;20475;-72
2023/05/31 05:43:08;;;;;;;20.73;8.52;;;;;;;15.63;100.00;102680.34;10281611;28;20043;-71
2023/05/31 05:48:09;;;;;;;15.90;7.10;;;;;;;16.04;100.00;102672.53;10283171;28;20041;-72
2023/05/31 05:53:09;;;;;;;20.33;7.15;;;;;;;16.34;100.00;102684.28;10283672;28;20061;-72
2023/05/31 05:58:10;;;;;;;13.20;6.25;;;;;;;16.55;100.00;102671.66;10283640;28;20049;-72
2023/05/31 06:03:14;;;;;;;9.90;6.32;;;;;;;16.92;100.00;102671.44;10300814;28;20042;-73
2023/05/31 06:08:15;;;;;;;11.23;6.85;;;;;;;17.26;100.00;102693.63;10284415;28;20486;-72
2023/05/31 06:13:15;;;;;;;11.45;6.82;;;;;;;17.63;100.00;102678.72;10285764;28;20057;-72
2023/05/31 06:18:16;;;;;;;8.35;6.10;;;;;;;17.98;99.87;102687.81;10283190;28;20113;-73
2023/05/31 06:23:16;;;;;;;19.95;6.60;;;;;;;18.25;100.00;102683.31;10299713;28;20066;-73
2023/05/31 06:28:16;;;;;;;9.85;7.60;;;;;;;18.52;95.60;102675.16;10266215;28;20482;-72
2023/05/31 06:33:18;;;;;;;22.35;7.72;;;;;;;18.81;91.97;102673.97;10282222;28;20106;-72
2023/05/31 06:38:21;;;;;;;8.10;6.25;;;;;;;19.08;89.60;102676.72;10280962;28;20055;-72
2023/05/31 06:43:21;;;;;;;8.27;7.38;;;;;;;19.37;86.28;102681.78;10282795;28;20122;-72
2023/05/31 06:48:22;;;;;;;9.10;7.45;;;;;;;19.67;84.72;102675.84;10299251;28;20067;-72
2023/05/31 06:53:22;;;;;;;12.98;6.95;;;;;;;19.99;80.49;102671.31;10298787;28;20045;-72
2023/05/31 06:58:22;;;;;;;11.38;6.50;;;;;;;20.61;80.77;102674.41;10299373;28;20428;-72
2023/05/31 07:03:23;;;;;;;7.97;7.00;;;;;;;21.02;79.24;102676.66;10299028;28;20050;-72
2023/05/31 07:08:23;;;;;;;14.68;7.55;;;;;;;21.11;69.54;102668.97;10281004;28;20442;-71
2023/05/31 07:13:24;;;;;;;8.25;7.45;;;;;;;21.31;73.11;102671.53;10299323;28;20121;-71
2023/05/31 07:18:24;;;;;;;8.88;7.63;;;;;;;21.62;67.73;102670.63;10281250;28;20058;-72
2023/05/31 07:23:25;;;;;;;11.02;7.63;;;;;;;22.14;68.83;102665.53;10297847;28;20046;-72
2023/05/31 07:28:26;;;;;;;11.45;7.70;;;;;;;22.14;64.28;102664.69;10280713;28;20034;-72
2023/05/31 07:33:26;;;;;;;13.38;7.07;;;;;;;22.07;64.40;102659.25;10297870;28;20034;-72
2023/05/31 07:38:27;;;;;;;15.88;7.85;;;;;;;22.61;63.58;102648.34;10298155;28;20370;-71
2023/05/31 07:43:29;;;;;;;8.07;5.78;;;;;;;23.07;63.31;102655.06;10279872;28;20035;-71
2023/05/31 07:48:32;;;;;;;10.77;6.97;;;;;;;22.91;61.68;102649.16;10263827;28;20070;-72
2023/05/31 07:53:32;;;;;;;11.27;6.38;;;;;;;23.28;59.40;102646.19;10295999;28;20137;-72
2023/05/31 07:58:33;;;;;;;7.90;6.38;;;;;;;23.29;54.65;102650.63;10296964;28;20126;-71
2023/05/31 08:03:33;;;;;;;11.82;5.88;;;;;;;23.15;62.67;102638.16;10297022;28;20035;-71
2023/05/31 08:08:33;;;;;;;11.80;7.93;;;;;;;23.43;57.04;102646.56;10296998;28;20544;-73
2023/05/31 08:13:34;;;;;;;12.57;6.90;;;;;;;23.58;57.35;102640.53;10298704;28;20066;-72
2023/05/31 08:18:34;;;;;;;8.90;6.18;;;;;;;23.39;56.57;102639.84;10296754;28;20105;-72
2023/05/31 08:23:35;;;;;;;9.35;6.50;;;;;;;24.03;57.69;102639.88;10263807;28;20125;-72
2023/05/31 08:28:35;;;;;;;15.35;7.40;;;;;;;24.44;56.88;102629.63;10277545;28;20073;-72
2023/05/31 08:33:36;;;;;;;9.48;5.82;;;;;;;25.23;57.86;102631.50;10279325;28;20034;-72
2023/05/31 08:38:36;;;;;;;6.68;6.05;;;;;;;25.11;53.20;102623.25;10293832;28;20118;-72
2023/05/31 08:43:37;;;;;;;10.80;6.53;;;;;;;24.88;51.80;102618.72;10296244;28;20077;-72
2023/05/31 08:48:46;;;;;;;12.10;7.10;;;;;;;25.24;51.06;102617.41;10262804;28;20461;-71
2023/05/31 08:53:47;;;;;;;5.97;5.45;;;;;;;25.12;53.72;102622.19;10262071;28;20034;-72
2023/05/31 08:58:49;;;;;;;14.57;6.57;;;;;;;25.08;50.13;102625.69;10276829;28;20035;-72
2023/05/31 09:03:50;;;;;;;12.52;7.25;;;;;;;25.10;50.88;102620.72;10276210;28;20077;-73
2023/05/31 09:08:51;;;;;;;17.33;6.97;;;;;;;25.21;49.61;102609.59;10277328;28;20042;-72
2023/05/31 09:13:51;;;;;;;8.32;6.95;;;;;;;25.71;51.69;102614.13;10276979;28;20031;-74
2023/05/31 09:18:59;;;;;;;10.77;6.68;;;;;;;26.20;49.44;102610.59;10275141;28;20506;-73
2023/05/31 09:24:00;;;;;;;8.70;5.35;;;;;;;25.88;48.67;102607.72;10276498;28;20030;-72
2023/05/31 09:29:00;;;;;;;8.15;6.40;;;;;;;26.60;47.81;102607.38;10275920;28;20035;-72
2023/05/31 09:34:01;;;;;;;10.23;7.78;;;;;;;26.65;49.91;102604.66;10275527;28;20043;-72
2023/05/31 09:39:08;;;;;;;10.15;5.55;;;;;;;26.65;48.85;102601.03;10293867;28;20054;-72
2023/05/31 09:44:08;;;;;;;9.88;5.15;;;;;;;26.93;47.53;102596.25;10276677;28;20042;-72
2023/05/31 09:49:09;;;;;;;6.63;5.15;;;;;;;26.75;47.22;102597.50;10275143;28;20070;-73
2023/05/31 09:54:10;;;;;;;9.65;5.63;;;;;;;27.07;44.64;102589.97;10275819;28;20045;-72
2023/05/31 09:59:10;;;;;;;11.68;5.25;;;;;;;26.66;46.75;102595.22;10276329;28;20099;-72
2023/05/31 10:04:11;;;;;;;6.45;5.78;;;;;;;26.26;48.32;102583.69;10274514;28;20035;-72
2023/05/31 10:09:11;;;;;;;9.50;5.20;;;;;;;27.33;44.21;102592.94;10276227;28;20346;-72
2023/05/31 10:14:26;;;;;;;7.88;4.57;;;;;;;27.01;45.76;102574.34;10274998;28;20181;-71
2023/05/31 10:19:31;;;;;;;11.35;5.57;;;;;;;26.18;46.13;102587.78;10260046;28;20113;-72
2023/05/31 10:24:46;;;;;;;5.90;5.35;;;;;;;26.49;44.32;102580.63;10293124;28;20039;-72
2023/05/31 10:29:52;;;;;;;9.00;5.65;;;;;;;26.61;46.18;102563.75;10281177;28;20371;-72
2023/05/31 10:34:52;;;;;;;5.95;5.10;;;;;;;27.67;44.22;102556.38;10298726;28;20478;-72
2023/05/31 10:40:06;;;;;;;8.48;5.30;;;;;;;27.51;43.22;102555.47;10314103;28;20043;-73
2023/05/31 10:45:22;;;;;;;13.57;6.03;;;;;;;27.39;44.89;102564.03;10281745;28;20038;-73
2023/05/31 10:50:23;;;;;;;6.05;4.80;;;;;;;27.56;44.74;102544.34;10282706;28;20362;-73
2023/05/31 10:55:23;;;;;;;10.20;6.13;;;;;;;26.17;44.01;102558.34;10281408;28;20042;-72
2023/05/31 11:00:24;;;;;;;9.68;6.53;;;;;;;26.88;42.82;102541.47;10281819;28;20035;-73
2023/05/31 11:05:26;;;;;;;6.97;4.88;;;;;;;27.66;44.03;102537.97;10282116;28;20054;-72
2023/05/31 11:10:28;;;;;;;15.63;6.75;;;;;;;28.47;44.05;102540.97;10299489;28;20459;-73
2023/05/31 11:15:39;;;;;;;7.95;5.40;;;;;;;28.60;44.35;102535.94;10301515;28;20058;-72
2023/05/31 11:20:40;;;;;;;7.63;5.53;;;;;;;28.14;40.09;102530.31;10303673;28;20050;-72
2023/05/31 11:25:40;;;;;;;5.35;4.85;;;;;;;28.14;41.87;102524.75;10284715;28;20043;-72
2023/05/31 11:30:46;;;;;;;12.75;5.72;;;;;;;27.96;40.68;102526.97;10280418;28;20038;-72
2023/05/31 11:35:46;;;;;;;6.50;5.87;;;;;;;27.93;41.01;102518.31;10297332;28;20094;-73
2023/05/31 11:40:47;;;;;;;23.75;6.05;;;;;;;27.87;41.37;102516.63;10280486;28;20058;-71
2023/05/31 11:45:47;;;;;;;6.05;4.93;;;;;;;28.07;39.57;102525.00;10298938;28;20061;-72
2023/05/31 11:50:48;;;;;;;8.93;4.63;;;;;;;27.79;42.16;102506.84;10265868;28;20034;-72
2023/05/31 11:55:48;;;;;;;20.00;6.03;;;;;;;28.27;42.35;102505.53;10299561;28;20103;-72
2023/05/31 12:00:49;;;;;;;8.68;4.65;;;;;;;28.74;40.09;102489.63;10298714;28;20114;-72
2023/05/31 12:05:53;;;;;;;4.65;4.25;;;;;;;28.68;42.54;102482.38;10281868;28;20031;-72
2023/05/31 12:10:54;;;;;;;12.35;5.65;;;;;;;29.11;39.13;102478.13;10299069;28;20114;-72
2023/05/31 12:15:55;;;;;;;4.80;4.32;;;;;;;28.77;41.54;102479.88;10266920;28;20141;-72
2023/05/31 12:20:56;;;;;;;3.60;3.30;;;;;;;29.08;38.95;102480.66;10281504;28;20051;-72
2023/05/31 12:25:57;;;;;;;6.18;4.05;;;;;;;29.33;41.60;102477.75;10299146;28;20046;-72
2023/05/31 12:30:58;;;;;;;6.25;4.53;;;;;;;29.03;36.65;102461.13;10262630;28;20419;-72
2023/05/31 12:35:58;;;;;;;9.30;4.50;;;;;;;28.14;39.96;102455.09;10279601;28;20062;-74
2023/05/31 12:40:58;;;;;;;8.30;4.45;;;;;;;29.22;42.12;102453.78;10312526;28;20034;-71
2023/05/31 12:46:00;;;;;;;11.07;4.88;;;;;;;29.00;39.65;102454.13;10262246;28;20387;-71
2023/05/31 12:51:01;;;;;;;6.63;4.57;;;;;;;29.35;41.38;102433.63;10278621;28;20042;-71
2023/05/31 12:56:01;;;;;;;4.35;3.85;;;;;;;29.94;41.61;102445.84;10292812;28;20042;-72
2023/05/31 13:01:02;;;;;;;5.65;4.88;;;;;;;29.27;40.49;102431.47;10276908;28;20121;-71
2023/05/31 13:06:02;;;;;;;9.52;4.55;;;;;;;29.56;40.68;102428.78;10294265;28;20043;-71
2023/05/31 13:11:03;;;;;;;10.55;4.45;;;;;;;29.32;39.56;102419.41;10296815;28;20501;-73
2023/05/31 13:16:05;;;;;;;4.90;3.35;;;;;;;29.50;39.81;102429.09;10277400;28;20474;-73
2023/05/31 13:21:05;;;;;;;6.40;3.97;;;;;;;29.59;39.77;102422.59;10275989;28;20066;-72
2023/05/31 13:26:06;;;;;;;15.02;3.45;;;;;;;29.35;37.35;102414.09;10276626;28;20205;-73
2023/05/31 13:31:06;;;;;;;9.50;3.28;;;;;;;29.12;39.40;102409.22;10244901;28;20037;-72
2023/05/31 13:36:07;;;;;;;5.55;4.45;;;;;;;28.73;39.46;102409.91;10293296;28;20124;-73
2023/05/31 13:41:07;;;;;;;9.05;4.75;;;;;;;28.66;37.60;102403.81;10260714;28;20166;-71
2023/05/31 13:46:09;;;;;;;7.00;4.30;;;;;;;28.14;38.67;102396.63;10294337;28;20035;-71
2023/05/31 13:51:11;;;;;;;4.55;3.22;;;;;;;28.04;39.27;102403.84;10277970;28;20106;-71
2023/05/31 13:56:12;;;;;;;6.65;3.97;;;;;;;27.85;39.89;102394.41;10276035;28;20072;-72
2023/05/31 14:01:12;;;;;;;5.07;4.50;;;;;;;27.76;38.81;102396.03;10276912;28;20031;-72
2023/05/31 14:06:13;;;;;;;6.00;4.07;;;;;;;27.44;39.90;102396.25;10282424;28;20513;-72
2023/05/31 14:11:14;;;;;;;8.40;4.28;;;;;;;27.80;39.03;102384.09;10267182;28;20031;-71
2023/05/31 14:16:14;;;;;;;8.82;4.10;;;;;;;27.37;38.81;102382.63;10282698;28;20097;-72
2023/05/31 14:21:14;;;;;;;5.32;4.35;;;;;;;26.84;40.14;102384.66;10282943;28;20405;-71
2023/05/31 14:26:15;;;;;;;12.13;5.53;;;;;;;26.74;40.57;102384.59;10300997;28;20104;-72
2023/05/31 14:31:16;;;;;;;6.70;4.60;;;;;;;26.87;40.54;102381.34;10283031;28;20057;-72
2023/05/31 14:36:17;;;;;;;10.50;5.88;;;;;;;26.78;41.12;102381.03;10300270;28;20038;-72
2023/05/31 14:41:17;;;;;;;5.15;4.75;;;;;;;26.20;42.41;102380.94;10265103;28;20083;-72
2023/05/31 14:46:18;;;;;;;10.40;5.85;;;;;;;25.90;42.79;102361.28;10282123;28;20178;-73
2023/05/31 14:51:18;;;;;;;7.70;5.55;;;;;;;26.18;42.91;102349.81;10282176;28;20063;-71
2023/05/31 14:56:18;;;;;;;7.93;3.75;;;;;;;26.12;41.88;102353.66;10264738;28;20166;-72
2023/05/31 15:01:20;;;;;;;14.10;4.57;;;;;;;25.64;42.52;102361.03;10264556;28;20039;-72
2023/05/31 15:06:21;;;;;;;5.30;3.70;;;;;;;25.81;44.48;102352.59;10280795;28;20042;-72
2023/05/31 15:11:22;;;;;;;5.72;4.15;;;;;;;25.30;43.76;102349.31;10296792;28;20512;-72
2023/05/31 15:16:23;;;;;;;4.18;3.72;;;;;;;25.47;43.80;102347.28;10279922;28;20098;-71
2023/05/31 15:21:23;;;;;;;4.70;3.60;;;;;;;25.44;43.25;102353.34;10297813;28;20130;-72
2023/05/31 15:26:23;;;;;;;5.40;4.15;;;;;;;25.35;44.07;102356.88;10280001;28;20143;-72
2023/05/31 15:31:24;;;;;;;3.92;2.67;;;;;;;25.66;43.39;102349.69;10296415;28;20079;-72
2023/05/31 15:36:25;;;;;;;10.23;5.25;;;;;;;25.59;45.49;102349.91;10278693;28;20101;-72
2023/05/31 15:41:25;;;;;;;5.47;4.50;;;;;;;25.23;47.26;102343.16;10261933;28;20114;-71
2023/05/31 15:46:26;;;;;;;10.10;4.97;;;;;;;25.09;48.08;102341.88;10311365;28;20469;-71
2023/05/31 15:51:26;;;;;;;5.82;4.13;;;;;;;24.72;48.93;102346.13;10310883;28;20043;-72
2023/05/31 15:56:27;;;;;;;15.30;5.68;;;;;;;24.66;49.71;102349.91;10310803;28;20066;-73
2023/05/31 16:01:27;;;;;;;8.10;4.95;;;;;;;24.24;50.34;102332.97;10277670;28;20038;-72
2023/05/31 16:06:29;;;;;;;5.93;4.57;;;;;;;24.17;50.79;102335.94;10295827;28;20043;-72
2023/05/31 16:11:32;;;;;;;8.07;4.60;;;;;;;23.90;51.93;102328.34;10294594;28;20026;-72
2023/05/31 16:16:36;;;;;;;7.97;4.47;;;;;;;23.74;51.95;102340.25;10260981;28;20114;-72
2023/05/31 16:21:36;;;;;;;9.82;6.22;;;;;;;23.00;52.73;102326.41;10295231;28;20067;-72
2023/05/31 16:26:37;;;;;;;23.92;6.20;;;;;;;22.33;53.00;102326.06;10295057;28;20113;-72
2023/05/31 16:31:37;;;;;;;12.25;6.25;;;;;;;21.80;56.93;102314.06;10295279;28;20447;-73
2023/05/31 16:36:38;;;;;;;7.00;4.93;;;;;;;21.46;55.76;102311.00;10277810;28;20490;-72
2023/05/31 16:41:39;;;;;;;14.38;7.40;;;;;;;21.25;57.94;102312.34;10277821;28;20046;-71
2023/05/31 16:46:39;;;;;;;10.20;6.22;;;;;;;21.08;57.06;102309.41;10294538;28;20070;-72
2023/05/31 16:51:40;;;;;;;10.75;4.85;;;;;;;21.01;56.13;102314.16;10277365;28;20387;-71
2023/05/31 16:56:40;;;;;;;8.55;5.20;;;;;;;20.87;57.38;102312.69;10294106;28;20023;-72
2023/05/31 17:01:40;;;;;;;11.30;6.22;;;;;;;20.67;59.04;102316.50;10294666;28;20039;-72
2023/05/31 17:06:41;;;;;;;13.70;6.32;;;;;;;20.44;61.63;102306.16;10293763;28;20122;-73
2023/05/31 17:11:41;;;;;;;7.55;6.32;;;;;;;20.19;66.14;102321.88;10259975;28;20035;-72
2023/05/31 17:16:43;;;;;;;17.63;5.95;;;;;;;19.96;67.08;102304.13;10277365;28;20081;-72
2023/05/31 17:21:44;;;;;;;7.53;6.05;;;;;;;19.89;65.21;102299.75;10276957;28;20411;-73
2023/05/31 17:26:47;;;;;;;13.02;5.60;;;;;;;19.73;65.23;102302.00;10295216;28;20073;-72
2023/05/31 17:31:47;;;;;;;10.57;7.15;;;;;;;19.53;64.74;102304.06;10276275;28;20031;-73
2023/05/31 17:36:48;;;;;;;21.17;6.35;;;;;;;19.37;70.37;102293.59;10278111;28;20470;-72
2023/05/31 17:41:48;;;;;;;16.77;6.75;;;;;;;19.31;69.74;102300.84;10277122;28;20468;-71
2023/05/31 17:46:49;;;;;;;14.95;7.13;;;;;;;19.10;71.96;102293.78;10275385;28;20490;-72
2023/05/31 17:51:49;;;;;;;13.05;6.82;;;;;;;19.05;71.47;102288.97;10274648;28;20035;-73
2023/05/31 17:56:52;;;;;;;12.15;7.70;;;;;;;18.94;79.97;102286.06;10274510;28;20027;-72
2023/05/31 18:01:53;;;;;;;23.60;8.07;;;;;;;18.80;81.61;102286.13;10276885;28;20039;-71
2023/05/31 18:06:54;;;;;;;15.73;6.68;;;;;;;18.65;81.11;102293.75;10275910;28;20378;-72
2023/05/31 18:11:55;;;;;;;18.17;7.13;;;;;;;18.54;82.50;102276.09;10275310;28;20097;-71
2023/05/31 18:16:55;;;;;;;16.13;6.82;;;;;;;18.51;82.84;102292.13;10278123;28;20081;-73
2023/05/31 18:21:56;;;;;;;11.18;6.57;;;;;;;18.31;82.79;102283.94;10275411;28;20098;-72
2023/05/31 18:27:18;;;;;;;12.00;7.80;;;;;;;18.03;87.44;102278.78;10274840;28;20041;-72
2023/05/31 18:32:19;;;;;;;17.08;7.43;;;;;;;17.94;85.58;102289.09;10259453;28;20031;-71
2023/05/31 18:37:22;;;;;;;18.45;8.90;;;;;;;17.79;83.87;102286.56;10291990;28;20087;-72
2023/05/31 18:42:22;;;;;;;11.98;7.78;;;;;;;17.60;89.24;102298.34;10291361;28;20046;-69
2023/05/31 18:47:23;;;;;;;22.05;6.68;;;;;;;17.32;89.98;102301.28;10291566;28;20470;-71
2023/05/31 18:52:23;;;;;;;12.48;7.03;;;;;;;17.19;88.28;102299.34;10281131;28;20042;-70
2023/05/31 18:57:25;;;;;;;11.30;6.75;;;;;;;17.00;90.21;102294.66;10280959;28;20034;-70
2023/05/31 19:02:26;;;;;;;7.50;6.15;;;;;;;16.79;95.56;102307.44;10298582;28;20361;-71
2023/05/31 19:07:29;;;;;;;8.25;6.07;;;;;;;16.62;94.95;102297.88;10279739;28;20038;-72
2023/05/31 19:12:30;;;;;;;6.95;6.25;;;;;;;16.50;91.06;102312.13;10281079;28;20035;-72
2023/05/31 19:17:31;;;;;;;9.05;6.03;;;;;;;16.25;90.94;102300.84;10280150;28;20043;-71
2023/05/31 19:22:50;;;;;;;12.77;6.72;;;;;;;15.94;96.37;102320.38;10298467;28;20054;-69
2023/05/31 19:27:51;;;;;;;9.98;6.40;;;;;;;15.69;98.40;102330.88;10280997;28;20451;-72
2023/05/31 19:32:51;;;;;;;8.20;4.78;;;;;;;15.49;98.42;102332.56;10297692;28;20046;-71
2023/05/31 19:37:53;;;;;;;9.77;7.18;;;;;;;15.26;99.43;102327.31;10280259;28;20050;-73
2023/05/31 19:42:55;;;;;;;8.00;7.18;;;;;;;14.97;100.00;102340.00;10297507;28;20374;-71
2023/05/31 19:47:56;;;;;;;8.13;6.43;;;;;;;14.74;100.00;102348.31;10294255;28;20039;-70
2023/05/31 19:52:57;;;;;;;10.80;7.53;;;;;;;14.56;100.00;102342.38;10296098;28;20042;-71
2023/05/31 19:57:57;;;;;;;17.98;7.95;;;;;;;14.34;100.00;102358.59;10277999;28;20133;-72
2023/05/31 20:02:58;;;;;;;14.23;7.53;;;;;;;14.19;100.00;102352.28;10296018;28;20038;-72
2023/05/31 20:08:00;;;;;;;7.45;6.80;;;;;;;13.96;100.00;102361.38;10295580;28;20035;-73
2023/05/31 20:13:00;;;;;;;16.58;8.30;;;;;;;13.75;100.00;102360.34;10263499;28;20166;-75
2023/05/31 20:18:02;;;;;;;11.32;7.38;;;;;;;13.52;100.00;102363.09;10277399;28;20463;-75
2023/05/31 20:23:03;;;;;;;11.55;8.30;;;;;;;13.45;100.00;102371.13;10277690;28;20386;-75
2023/05/31 20:28:03;;;;;;;21.42;9.52;;;;;;;13.32;100.00;102373.59;10294506;28;20027;-75
2023/05/31 20:33:04;;;;;;;11.40;8.52;;;;;;;13.19;100.00;102380.44;10260364;28;20439;-75
2023/05/31 20:38:04;;;;;;;15.07;9.25;;;;;;;13.07;100.00;102387.31;10276191;28;20093;-76
2023/05/31 20:43:05;;;;;;;21.38;9.88;;;;;;;12.93;100.00;102401.66;10275748;28;20131;-75
2023/05/31 20:48:05;;;;;;;9.73;7.93;;;;;;;12.75;100.00;102399.16;10276238;28;20050;-76
2023/05/31 20:53:05;;;;;;;12.77;9.85;;;;;;;12.60;100.00;102384.59;10259773;28;20042;-75
2023/05/31 20:58:06;;;;;;;21.88;11.15;;;;;;;12.49;100.00;102393.97;10275449;28;20113;-75
2023/05/31 21:03:06;;;;;;;9.18;8.25;;;;;;;12.43;100.00;102390.09;10306142;28;20050;-76
2023/05/31 21:08:07;;;;;;;12.18;9.55;;;;;;;12.34;100.00;102389.25;10258905;28;20070;-74
2023/05/31 21:13:07;;;;;;;20.08;11.25;;;;;;;12.25;100.00;102390.31;10274605;28;20066;-75
2023/05/31 21:18:09;;;;;;;18.38;9.43;;;;;;;12.13;100.00;102390.84;10306293;28;20055;-75
2023/05/31 21:23:09;;;;;;;12.57;9.02;;;;;;;11.99;100.00;102395.06;10292325;28;20035;-78
2023/05/31 21:28:14;;;;;;;20.85;12.73;;;;;;;11.96;100.00;102407.09;10291945;28;20412;-75
2023/05/31 21:33:16;;;;;;;11.40;10.23;;;;;;;11.89;100.00;102407.97;10274851;28;20425;-75
2023/05/31 21:38:19;;;;;;;17.33;10.45;;;;;;;11.82;100.00;102397.75;10292130;28;20034;-75
2023/05/31 21:43:22;;;;;;;20.52;12.13;;;;;;;11.76;100.00;102403.00;10290998;28;20026;-76
2023/05/31 21:48:25;;;;;;;19.20;11.73;;;;;;;11.72;100.00;102407.09;10292781;28;20027;-77
2023/05/31 21:53:46;;;;;;;20.33;11.80;;;;;;;11.68;100.00;102412.00;10292456;28;20371;-76
2023/05/31 21:58:51;;;;;;;27.38;12.77;;;;;;;11.71;100.00;102418.94;10292368;28;20062;-77
2023/05/31 22:03:55;;;;;;;27.63;12.98;;;;;;;11.82;100.00;102411.31;10290756;28;20031;-77
2023/05/31 22:08:58;;;;;;;33.88;14.02;;;;;;;11.98;100.00;102413.22;10288992;28;20093;-77
2023/05/31 22:14:03;;;;;;;28.38;13.43;;;;;;;12.05;100.00;102399.81;10273909;28;20126;-76
2023/05/31 22:19:04;;;;;;;27.35;12.93;;;;;;;12.07;100.00;102412.22;10273340;28;20050;-76
2023/05/31 22:24:12;;;;;;;20.77;12.40;;;;;;;11.95;100.00;102420.88;10280396;28;20054;-77
2023/05/31 22:29:13;;;;;;;23.08;13.43;;;;;;;11.74;100.00;102411.34;10298047;28;20060;-76
2023/05/31 22:34:18;;;;;;;22.48;12.68;;;;;;;11.61;100.00;102413.66;10313764;28;20031;-77
2023/05/31 22:39:25;;;;;;;15.80;12.82;;;;;;;11.48;100.00;102419.56;10282817;28;20069;-76
2023/05/31 22:44:28;;;;;;;19.60;12.05;;;;;;;11.39;100.00;102423.28;10297556;28;20105;-77
2023/05/31 22:49:30;;;;;;;18.95;12.65;;;;;;;11.37;100.00;102426.16;10265600;28;20130;-77